createdAt,value
2022-10-05T00:04:42.716Z,981.23
2022-10-05T00:10:14.437Z,981.23
2022-10-05T00:15:46.086Z,981.1
2022-10-05T00:21:17.778Z,980.85
2022-10-05T00:26:58.374Z,980.85
2022-10-05T00:32:21.141Z,980.72
2022-10-05T00:37:52.923Z,980.72
2022-10-05T00:43:24.617Z,980.73
2022-10-05T00:48:56.377Z,980.5
2022-10-05T00:54:27.952Z,980.5
2022-10-05T00:59:59.778Z,980.54
2022-10-05T01:05:35.906Z,980.67
2022-10-05T01:11:07.673Z,980.73
2022-10-05T01:16:39.495Z,980.62
2022-10-05T01:22:11.126Z,980.66
2022-10-05T01:27:42.781Z,980.64
2022-10-05T01:33:14.485Z,980.65
2022-10-05T01:38:46.441Z,980.57
2022-10-05T01:44:17.984Z,980.47
2022-10-05T01:49:49.765Z,980.38
2022-10-05T01:55:21.469Z,980.29
2022-10-05T02:00:54.716Z,980.19
2022-10-05T02:06:29.257Z,980.38
2022-10-05T02:12:01.089Z,980.47
2022-10-05T02:17:32.861Z,980.23
2022-10-05T02:23:04.456Z,980.28
2022-10-05T02:28:36.288Z,980.32
2022-10-05T02:34:07.793Z,980.55
2022-10-05T02:39:39.800Z,980.48
2022-10-05T02:45:11.289Z,980.8
2022-10-05T02:50:43.066Z,980.88
2022-10-05T02:56:15.129Z,980.79
2022-10-05T03:01:46.689Z,980.73
2022-10-05T03:07:24.545Z,980.63
2022-10-05T03:12:56.253Z,980.47
2022-10-05T03:18:31.449Z,980.36
2022-10-05T03:23:59.758Z,980.17
2022-10-05T03:29:31.526Z,980.04
2022-10-05T03:35:03.292Z,980.0
2022-10-05T03:40:34.989Z,979.8
2022-10-05T03:46:07.007Z,979.93
2022-10-05T03:51:38.400Z,979.82
2022-10-05T03:57:10.133Z,979.76
2022-10-05T04:02:42.018Z,979.9
2022-10-05T04:08:17.870Z,979.86
2022-10-05T04:13:49.597Z,979.97
2022-10-05T04:19:21.280Z,980.02
2022-10-05T04:24:53.182Z,980.03
2022-10-05T04:30:24.945Z,980.14
2022-10-05T04:35:56.929Z,980.17
2022-10-05T04:41:28.277Z,980.22
2022-10-05T04:47:00.220Z,980.32
2022-10-05T04:52:31.705Z,980.38
2022-10-05T04:58:03.440Z,980.58
2022-10-05T05:03:35.222Z,980.78
2022-10-05T05:09:13.169Z,980.66
2022-10-05T05:14:44.927Z,980.56
2022-10-05T05:20:16.789Z,980.44
2022-10-05T05:25:48.518Z,980.33
2022-10-05T05:31:20.431Z,980.47
2022-10-05T05:36:52.001Z,980.53
2022-10-05T05:42:23.665Z,980.68
2022-10-05T05:47:55.449Z,980.89
2022-10-05T05:53:27.157Z,980.8
2022-10-05T05:58:58.825Z,981.14
2022-10-05T06:04:30.986Z,981.23
2022-10-05T06:10:06.682Z,981.55
2022-10-05T06:15:38.351Z,981.79
2022-10-05T06:21:10.158Z,982.12
2022-10-05T06:26:41.833Z,982.23
2022-10-05T06:32:13.462Z,981.97
2022-10-05T06:37:45.210Z,983.21
2022-10-05T06:43:17.070Z,983.42
2022-10-05T06:48:49.052Z,983.98
2022-10-05T06:54:20.546Z,984.15
2022-10-05T06:59:52.229Z,984.06
2022-10-05T07:05:24.282Z,984.23
2022-10-05T07:10:59.969Z,984.91
2022-10-05T07:16:31.950Z,984.93
2022-10-05T07:22:03.535Z,985.01
2022-10-05T07:27:36.241Z,985.35
2022-10-05T07:33:08.113Z,985.28
2022-10-05T07:38:40.609Z,985.39
2022-10-05T07:44:13.692Z,985.62
2022-10-05T07:49:43.113Z,985.11
2022-10-05T07:55:14.857Z,985.9
2022-10-05T08:00:46.673Z,986.27
2022-10-05T08:06:18.424Z,986.38
2022-10-05T08:11:56.806Z,986.51
2022-10-05T08:17:28.634Z,986.58
2022-10-05T08:23:00.481Z,986.2
2022-10-05T08:28:32.433Z,986.37
2022-10-05T08:34:03.741Z,986.41
2022-10-05T08:39:35.499Z,986.15
2022-10-05T08:45:07.207Z,986.46
2022-10-05T08:50:38.932Z,986.24
2022-10-05T08:56:10.673Z,986.21
2022-10-05T09:01:42.649Z,986.32
2022-10-05T09:07:14.159Z,985.78
2022-10-05T09:12:50.380Z,986.15
2022-10-05T09:18:21.955Z,986.46
2022-10-05T09:23:53.608Z,986.17
2022-10-05T09:29:25.580Z,986.38
2022-10-05T09:34:57.171Z,986.41
2022-10-05T09:40:28.836Z,986.13
2022-10-05T09:46:00.650Z,986.57
2022-10-05T09:51:32.310Z,986.13
2022-10-05T09:57:04.090Z,986.65
2022-10-05T10:02:36.105Z,986.65
2022-10-05T10:08:07.508Z,986.8
2022-10-05T10:13:45.668Z,985.83
2022-10-05T10:19:17.323Z,986.02
2022-10-05T10:24:49.116Z,986.13
2022-10-05T10:30:21.412Z,986.42
2022-10-05T10:35:52.471Z,986.44
2022-10-05T10:41:24.185Z,986.31
2022-10-05T10:46:56.217Z,986.06
2022-10-05T10:52:27.609Z,985.87
2022-10-05T10:57:59.422Z,986.18
2022-10-05T11:03:31.158Z,986.02
2022-10-05T11:09:03.557Z,985.99
2022-10-05T11:14:39.016Z,985.97
2022-10-05T11:20:10.818Z,986.13
2022-10-05T11:25:42.522Z,985.93
2022-10-05T11:31:14.253Z,985.9
2022-10-05T11:36:45.928Z,985.65
2022-10-05T11:42:17.762Z,985.47
2022-10-05T11:47:49.379Z,984.71
2022-10-05T11:53:21.084Z,985.43
2022-10-05T11:58:52.889Z,985.21
2022-10-05T12:04:24.530Z,985.32
2022-10-05T12:09:56.466Z,984.92
2022-10-05T12:15:32.441Z,985.2
2022-10-05T12:21:04.072Z,984.86
2022-10-05T12:26:35.831Z,984.55
2022-10-05T12:32:07.602Z,984.38
2022-10-05T12:37:39.615Z,984.65
2022-10-05T12:43:10.907Z,984.71
2022-10-05T12:48:42.800Z,984.47
2022-10-05T12:54:14.439Z,984.18
2022-10-05T12:59:46.168Z,984.04
2022-10-05T13:05:17.882Z,983.91
2022-10-05T13:16:28.109Z,983.31
2022-10-05T13:21:59.511Z,983.61
2022-10-05T13:27:31.214Z,981.92
2022-10-05T13:33:03.443Z,982.22
2022-10-05T13:38:34.787Z,982.33
2022-10-05T13:44:06.371Z,981.7
2022-10-05T13:49:38.679Z,981.3
2022-10-05T13:55:09.812Z,981.37
2022-10-05T14:00:41.675Z,981.86
2022-10-05T14:06:13.226Z,981.73
2022-10-05T14:11:44.953Z,981.78
2022-10-05T14:17:21.145Z,981.6
2022-10-05T14:22:53.120Z,981.9
2022-10-05T14:28:24.876Z,981.97
2022-10-05T14:33:56.252Z,982.34
2022-10-05T14:39:27.981Z,981.9
2022-10-05T14:44:59.800Z,982.48
2022-10-05T14:50:31.375Z,982.42
2022-10-05T14:56:03.173Z,982.4
2022-10-05T15:01:36.114Z,981.84
2022-10-05T15:07:07.621Z,982.3
2022-10-05T15:12:39.618Z,982.43
2022-10-05T15:18:15.440Z,982.33
2022-10-05T15:23:47.133Z,982.07
2022-10-05T15:29:18.860Z,980.99
2022-10-05T15:34:50.683Z,981.89
2022-10-05T15:40:22.414Z,981.68
2022-10-05T15:45:54.932Z,981.73
2022-10-05T15:51:25.793Z,981.48
2022-10-05T15:56:57.449Z,981.29
2022-10-05T16:02:29.578Z,981.17
2022-10-05T16:08:01.252Z,981.02
2022-10-05T16:13:33.207Z,980.96
2022-10-05T16:19:09.800Z,980.89
2022-10-05T16:24:41.145Z,980.82
2022-10-05T16:30:12.817Z,980.69
2022-10-05T16:35:44.498Z,980.76
2022-10-05T16:41:16.205Z,980.65
2022-10-05T16:46:48.173Z,980.59
2022-10-05T16:52:19.710Z,980.32
2022-10-05T16:57:51.437Z,980.25
2022-10-05T17:03:23.285Z,980.06
2022-10-05T17:08:54.897Z,980.13
2022-10-05T17:14:26.633Z,980.01
2022-10-05T17:20:02.846Z,979.73
2022-10-05T17:25:34.390Z,979.72
2022-10-05T17:31:06.384Z,980.2
2022-10-05T17:36:37.771Z,980.08
2022-10-05T17:42:09.757Z,980.15
2022-10-05T17:47:47.881Z,979.61
2022-10-05T17:53:14.049Z,980.16
2022-10-05T17:58:45.667Z,979.91
2022-10-05T18:04:17.349Z,979.86
2022-10-05T18:09:49.021Z,979.95
2022-10-05T18:15:20.790Z,979.85
2022-10-05T18:20:58.898Z,979.83
2022-10-05T18:26:30.489Z,979.19
2022-10-05T18:32:02.390Z,979.62
2022-10-05T18:37:34.416Z,979.33
2022-10-05T18:43:05.793Z,979.71
2022-10-05T18:48:37.501Z,979.71
2022-10-05T18:54:09.151Z,979.76
2022-10-05T18:59:41.014Z,979.88
2022-10-05T19:05:48.884Z,980.3
2022-10-05T19:10:44.413Z,979.97
2022-10-05T19:16:16.397Z,980.16
2022-10-05T19:21:52.324Z,979.76
2022-10-05T19:27:24.213Z,979.73
2022-10-05T19:32:55.654Z,979.83
2022-10-05T19:38:27.422Z,980.04
2022-10-05T19:43:59.168Z,979.84
2022-10-05T19:49:30.964Z,979.89
2022-10-05T19:55:02.581Z,979.49
2022-10-05T20:00:34.413Z,979.61
2022-10-05T20:06:06.049Z,979.55
2022-10-05T20:11:37.786Z,979.67
2022-10-05T20:17:09.650Z,979.82
2022-10-05T20:22:47.621Z,980.07
2022-10-05T20:28:19.477Z,980.52
2022-10-05T20:33:51.012Z,980.87
2022-10-05T20:39:22.901Z,980.91
2022-10-05T20:44:57.634Z,980.77
2022-10-05T20:50:26.281Z,981.17
2022-10-05T20:55:57.954Z,981.17
2022-10-05T21:01:29.897Z,981.1
2022-10-05T21:07:01.523Z,980.81
2022-10-05T21:12:33.081Z,981.14
2022-10-05T21:18:04.826Z,980.91
2022-10-05T21:23:40.997Z,981.52
2022-10-05T21:29:13.945Z,981.37
2022-10-05T21:34:44.453Z,981.28
2022-10-05T21:40:16.277Z,981.41
2022-10-05T21:45:48.201Z,981.64
2022-10-05T21:51:19.645Z,981.78
2022-10-05T21:56:51.389Z,981.65
2022-10-05T22:02:23.129Z,981.72
2022-10-05T22:07:54.786Z,981.84
2022-10-05T22:13:26.562Z,981.61
2022-10-05T22:18:58.485Z,981.76
2022-10-05T22:24:34.254Z,981.75
2022-10-05T22:30:06.099Z,981.75
2022-10-05T22:35:37.821Z,981.78
2022-10-05T22:41:09.785Z,981.96
2022-10-05T22:46:41.077Z,982.2
2022-10-05T22:52:12.869Z,982.29
2022-10-05T22:57:44.570Z,982.31
2022-10-05T23:03:16.370Z,982.17
2022-10-05T23:08:48.021Z,982.11
2022-10-05T23:14:19.805Z,982.02
2022-10-05T23:19:51.514Z,982.17
2022-10-05T23:25:27.678Z,982.22
2022-10-05T23:30:59.542Z,982.15
2022-10-05T23:36:30.994Z,982.21
2022-10-05T23:42:02.873Z,982.05
2022-10-05T23:47:34.461Z,982.1
2022-10-05T23:53:06.189Z,982.64
2022-10-05T23:58:37.982Z,982.04
